Time;durP1;ratioP1;P1;durP2;ratioP2;P2;SDS_P1;SDS_P2;PMS_P1;PMS_P2;Temp;Humidity;BMP_temperature;BMP_pressure;BME280_temperature;BME280_humidity;BME280_pressure;Samples;Min_cycle;Max_cycle;Signal;HPM_P1;HPM_P2
2022/08/06 00:02:06;;;;;;;0.68;0.38;;;;;;;;;;5077742;28;20047;-68
2022/08/06 00:04:34;;;;;;;0.93;0.73;;;;;;;;;;5085864;28;20216;-66
2022/08/06 00:07:04;;;;;;;0.35;0.30;;;;;;;;;;5078460;28;20082;-67
2022/08/06 00:09:33;;;;;;;2.38;0.20;;;;;;;;;;5080078;28;20500;-69
2022/08/06 00:12:22;;;;;;;0.63;0.43;;;;;;;;;;5081751;28;20066;-68
2022/08/06 00:14:56;;;;;;;0.32;0.30;;;;;;;;;;5077375;28;20052;-72
2022/08/06 00:17:27;;;;;;;0.30;0.30;;;;;;;;;;5076650;28;20044;-67
2022/08/06 00:20:01;;;;;;;0.20;0.20;;;;;;;;;;5076716;28;20040;-67
2022/08/06 00:22:31;;;;;;;0.10;0.10;;;;;;;;;;5088405;28;20048;-68
2022/08/06 00:25:00;;;;;;;0.55;0.43;;;;;;;;;;5081885;28;20090;-67
2022/08/06 00:27:29;;;;;;;4.32;0.52;;;;;;;;;;5086042;28;20064;-68
2022/08/06 00:30:07;;;;;;;0.60;0.43;;;;;;;;;;5082890;28;20053;-67
2022/08/06 00:32:47;;;;;;;0.22;0.22;;;;;;;;;;5078403;28;20406;-67
2022/08/06 00:35:20;;;;;;;0.22;0.22;;;;;;;;;;5086021;28;20044;-67
2022/08/06 00:37:50;;;;;;;1.80;1.05;;;;;;;;;;5087262;28;20491;-70
2022/08/06 00:40:26;;;;;;;1.90;0.52;;;;;;;;;;5084664;28;20052;-69
2022/08/06 00:42:57;;;;;;;0.38;0.32;;;;;;;;;;5087305;28;20078;-72
2022/08/06 00:45:28;;;;;;;0.38;0.30;;;;;;;;;;5065534;28;20045;-68
2022/08/06 00:48:00;;;;;;;0.17;0.15;;;;;;;;;;5060803;28;20393;-69
2022/08/06 00:50:35;;;;;;;0.35;0.35;;;;;;;;;;5065743;28;20083;-68
2022/08/06 00:53:05;;;;;;;0.25;0.25;;;;;;;;;;5068409;28;20542;-71
2022/08/06 00:55:37;;;;;;;0.60;0.30;;;;;;;;;;5069639;28;20048;-70
2022/08/06 00:58:25;;;;;;;0.57;0.40;;;;;;;;;;5083257;28;20056;-70
2022/08/06 01:00:54;;;;;;;0.30;0.30;;;;;;;;;;5073869;28;20052;-67
2022/08/06 01:03:24;;;;;;;0.10;0.10;;;;;;;;;;5078140;28;20128;-67
2022/08/06 01:06:08;;;;;;;0.28;0.28;;;;;;;;;;5072989;28;20124;-68
2022/08/06 01:08:56;;;;;;;1.90;0.20;;;;;;;;;;5063447;28;20059;-69
2022/08/06 01:11:25;;;;;;;0.30;0.22;;;;;;;;;;5062972;28;20098;-68
2022/08/06 01:13:54;;;;;;;0.35;0.35;;;;;;;;;;5054061;28;20057;-69
2022/08/06 01:16:36;;;;;;;0.35;0.32;;;;;;;;;;5073308;28;20443;-69
2022/08/06 01:19:16;;;;;;;0.17;0.17;;;;;;;;;;5086928;28;20083;-68
2022/08/06 01:22:05;;;;;;;0.35;0.30;;;;;;;;;;5089441;28;20575;-69
2022/08/06 01:25:17;;;;;;;0.35;0.20;;;;;;;;;;5090620;28;20496;-68
2022/08/06 01:27:50;;;;;;;0.65;0.63;;;;;;;;;;5046363;28;20124;-68
2022/08/06 01:30:20;;;;;;;0.20;0.20;;;;;;;;;;5087286;28;20083;-68
2022/08/06 01:32:59;;;;;;;0.10;0.10;;;;;;;;;;5084605;28;20157;-67
2022/08/06 01:35:32;;;;;;;0.20;0.20;;;;;;;;;;5086254;28;20040;-67
2022/08/06 01:38:23;;;;;;;0.20;0.20;;;;;;;;;;5079513;28;20056;-69
2022/08/06 01:40:53;;;;;;;0.10;0.10;;;;;;;;;;5087421;28;20067;-68
2022/08/06 01:43:23;;;;;;;0.80;0.38;;;;;;;;;;5086109;28;20095;-69
2022/08/06 01:46:13;;;;;;;0.70;0.65;;;;;;;;;;5082927;28;20340;-68
2022/08/06 01:48:44;;;;;;;0.10;0.10;;;;;;;;;;5076001;28;20125;-68
2022/08/06 01:51:13;;;;;;;0.80;0.60;;;;;;;;;;5081796;28;20044;-68
2022/08/06 01:53:48;;;;;;;0.15;0.15;;;;;;;;;;5077783;28;20052;-67
2022/08/06 01:56:36;;;;;;;0.40;0.35;;;;;;;;;;5076913;28;20077;-68
2022/08/06 01:59:28;;;;;;;1.02;0.20;;;;;;;;;;5078113;28;20056;-67
2022/08/06 02:01:58;;;;;;;0.35;0.30;;;;;;;;;;5085398;28;20072;-69
2022/08/06 02:04:30;;;;;;;0.22;0.22;;;;;;;;;;5072881;28;20064;-68
2022/08/06 02:07:08;;;;;;;0.40;0.20;;;;;;;;;;5075718;28;20048;-70
2022/08/06 02:09:57;;;;;;;1.08;0.30;;;;;;;;;;5080663;28;20055;-68
2022/08/06 02:14:57;;;;;;;0.38;0.15;;;;;;;;;;5009414;28;20111;-84
2022/08/06 02:17:26;;;;;;;0.10;0.10;;;;;;;;;;5012183;28;20042;-85
2022/08/06 02:20:17;;;;;;;0.10;0.10;;;;;;;;;;5003973;28;20054;-85
2022/08/06 02:23:04;;;;;;;0.30;0.20;;;;;;;;;;5003467;28;20042;-84
2022/08/06 02:25:37;;;;;;;0.50;0.50;;;;;;;;;;5006701;28;20058;-84
2022/08/06 02:28:06;;;;;;;0.50;0.30;;;;;;;;;;5012372;28;20128;-85
2022/08/06 02:30:38;;;;;;;0.73;0.73;;;;;;;;;;5011714;28;20128;-85
2022/08/06 02:33:11;;;;;;;0.75;0.38;;;;;;;;;;5001982;28;20058;-85
2022/08/06 02:35:47;;;;;;;0.60;0.60;;;;;;;;;;5009566;28;20429;-84
2022/08/06 02:38:21;;;;;;;0.13;0.10;;;;;;;;;;5011760;28;20420;-85
2022/08/06 02:40:57;;;;;;;1.33;0.40;;;;;;;;;;5006424;28;20050;-84
2022/08/06 02:43:31;;;;;;;0.63;0.20;;;;;;;;;;5001082;28;20046;-85
2022/08/06 02:46:05;;;;;;;0.52;0.50;;;;;;;;;;5011712;28;20046;-84
2022/08/06 02:48:37;;;;;;;0.45;0.25;;;;;;;;;;5009327;28;20085;-84
2022/08/06 02:51:14;;;;;;;0.40;0.30;;;;;;;;;;5012262;28;20045;-84
2022/08/06 02:54:05;;;;;;;0.43;0.25;;;;;;;;;;5009699;28;20050;-85
2022/08/06 02:56:36;;;;;;;0.00;0.00;;;;;;;;;;5011566;28;20176;-85
2022/08/06 02:59:14;;;;;;;0.28;0.28;;;;;;;;;;5011598;28;20042;-85
2022/08/06 03:01:46;;;;;;;0.13;0.13;;;;;;;;;;5008637;28;20046;-86
2022/08/06 03:04:17;;;;;;;;;;;;;;;;;;5011467;28;20498;-84
2022/08/06 03:06:47;;;;;;;0.25;0.20;;;;;;;;;;5011016;28;19968;-84
2022/08/06 03:09:17;;;;;;;0.98;0.15;;;;;;;;;;5008218;28;20043;-84
2022/08/06 03:11:47;;;;;;;0.32;0.22;;;;;;;;;;5011541;28;20129;-86
2022/08/06 03:14:17;;;;;;;0.10;0.10;;;;;;;;;;5007278;28;20053;-84
2022/08/06 03:17:07;;;;;;;0.50;0.30;;;;;;;;;;5010555;28;20142;-84
2022/08/06 03:19:39;;;;;;;0.60;0.50;;;;;;;;;;5007210;28;20486;-84
2022/08/06 03:22:24;;;;;;;0.32;0.30;;;;;;;;;;5008339;28;20060;-85
2022/08/06 03:25:07;;;;;;;0.68;0.35;;;;;;;;;;5010495;28;20493;-84
2022/08/06 03:27:37;;;;;;;0.93;0.55;;;;;;;;;;5010760;28;20049;-84
2022/08/06 03:30:12;;;;;;;0.38;0.30;;;;;;;;;;5012423;28;20085;-84
2022/08/06 03:33:02;;;;;;;1.67;0.22;;;;;;;;;;5002257;28;20104;-84
2022/08/06 03:35:51;;;;;;;1.73;0.45;;;;;;;;;;5010752;28;20413;-87
2022/08/06 03:38:22;;;;;;;0.47;0.47;;;;;;;;;;5013131;28;20062;-85
2022/08/06 03:40:56;;;;;;;;;;;;;;;;;;5003880;28;20073;-85
2022/08/06 03:43:25;;;;;;;1.77;0.47;;;;;;;;;;5010583;28;19964;-85
2022/08/06 03:46:00;;;;;;;0.20;0.20;;;;;;;;;;5012842;28;20046;-85
2022/08/06 03:48:34;;;;;;;1.33;0.70;;;;;;;;;;5012126;28;20461;-85
2022/08/06 03:51:12;;;;;;;0.20;0.10;;;;;;;;;;5020960;28;20034;-86
2022/08/06 03:53:42;;;;;;;0.32;0.32;;;;;;;;;;5023589;28;20289;-84
2022/08/06 03:56:18;;;;;;;0.25;0.25;;;;;;;;;;5011672;28;20061;-85
2022/08/06 03:58:58;;;;;;;0.17;0.17;;;;;;;;;;5009961;28;20391;-85
2022/08/06 04:01:28;;;;;;;0.38;0.38;;;;;;;;;;5008682;28;20124;-85
2022/08/06 04:03:59;;;;;;;0.43;0.30;;;;;;;;;;5010247;28;20063;-84
2022/08/06 04:06:47;;;;;;;1.90;0.57;;;;;;;;;;5004775;28;20060;-84
2022/08/06 04:09:20;;;;;;;1.08;0.98;;;;;;;;;;5009730;28;20401;-85
2022/08/06 04:12:09;;;;;;;0.47;0.47;;;;;;;;;;5007384;28;20145;-85
2022/08/06 04:14:58;;;;;;;1.20;0.65;;;;;;;;;;4999144;28;20053;-84
2022/08/06 04:17:28;;;;;;;1.17;1.02;;;;;;;;;;5009779;28;20050;-84
2022/08/06 04:20:02;;;;;;;1.08;0.90;;;;;;;;;;5003834;28;20046;-85
2022/08/06 04:22:32;;;;;;;1.50;1.00;;;;;;;;;;5006692;28;20517;-84
2022/08/06 04:25:20;;;;;;;2.67;1.10;;;;;;;;;;5009967;28;20387;-85
2022/08/06 04:27:49;;;;;;;1.67;1.30;;;;;;;;;;5004192;28;20056;-86
2022/08/06 04:30:21;;;;;;;1.25;0.70;;;;;;;;;;5010743;28;20054;-86
2022/08/06 04:32:53;;;;;;;2.08;1.20;;;;;;;;;;5009161;28;20050;-84
2022/08/06 04:35:31;;;;;;;1.90;1.20;;;;;;;;;;5008376;28;20402;-85
2022/08/06 04:38:21;;;;;;;0.60;0.60;;;;;;;;;;5007562;28;20612;-85
2022/08/06 04:40:57;;;;;;;3.03;1.08;;;;;;;;;;4999519;28;20074;-84
2022/08/06 04:43:31;;;;;;;1.08;0.73;;;;;;;;;;4993496;28;20055;-85
2022/08/06 04:46:20;;;;;;;0.40;0.38;;;;;;;;;;5007854;28;20139;-85
2022/08/06 04:48:49;;;;;;;1.65;0.90;;;;;;;;;;5010998;28;20042;-85
2022/08/06 04:51:29;;;;;;;1.83;0.68;;;;;;;;;;5015775;28;20141;-85
2022/08/06 04:54:18;;;;;;;1.60;0.65;;;;;;;;;;5013658;28;20585;-85
2022/08/06 04:56:55;;;;;;;1.25;0.90;;;;;;;;;;5009372;28;20065;-84
2022/08/06 04:59:25;;;;;;;0.20;0.20;;;;;;;;;;5009675;28;20532;-85
2022/08/06 05:02:14;;;;;;;0.52;0.40;;;;;;;;;;5011506;28;20416;-85
2022/08/06 05:04:43;;;;;;;1.02;0.68;;;;;;;;;;5007112;28;20050;-85
2022/08/06 05:07:16;;;;;;;2.08;0.52;;;;;;;;;;5012143;28;20053;-85
2022/08/06 05:09:45;;;;;;;2.65;0.95;;;;;;;;;;5011514;28;20042;-85
2022/08/06 05:12:27;;;;;;;0.85;0.60;;;;;;;;;;5012217;28;20476;-85
2022/08/06 05:15:00;;;;;;;0.52;0.45;;;;;;;;;;4987445;28;20062;-86
2022/08/06 05:17:31;;;;;;;2.10;0.45;;;;;;;;;;4994384;28;20043;-85
2022/08/06 05:20:06;;;;;;;0.20;0.20;;;;;;;;;;4985993;28;20085;-85
2022/08/06 05:22:42;;;;;;;1.38;0.40;;;;;;;;;;4991251;28;20085;-86
2022/08/06 05:25:22;;;;;;;0.57;0.55;;;;;;;;;;4987370;28;20050;-85
2022/08/06 05:27:55;;;;;;;2.50;0.70;;;;;;;;;;4983293;28;20051;-85
2022/08/06 05:30:48;;;;;;;0.77;0.70;;;;;;;;;;4982956;28;20510;-86
2022/08/06 05:33:23;;;;;;;0.95;0.75;;;;;;;;;;4989349;28;20061;-85
2022/08/06 05:35:57;;;;;;;0.77;0.47;;;;;;;;;;4987990;28;20059;-84
2022/08/06 05:38:32;;;;;;;;;;;;;;;;;;4990599;28;20100;-85
2022/08/06 05:41:07;;;;;;;0.93;0.47;;;;;;;;;;5000578;28;19925;-85
2022/08/06 05:43:36;;;;;;;0.45;0.45;;;;;;;;;;4986042;28;20125;-84
2022/08/06 05:46:25;;;;;;;0.30;0.30;;;;;;;;;;4988016;28;20097;-83
2022/08/06 05:49:00;;;;;;;0.20;0.20;;;;;;;;;;4989936;28;20144;-84
2022/08/06 05:51:51;;;;;;;1.05;0.57;;;;;;;;;;4982665;28;20109;-84
2022/08/06 05:54:22;;;;;;;1.02;0.60;;;;;;;;;;4992659;28;20094;-84
2022/08/06 05:56:57;;;;;;;3.58;0.63;;;;;;;;;;4988570;28;20050;-84
2022/08/06 05:59:33;;;;;;;0.73;0.30;;;;;;;;;;4988506;28;20119;-84
2022/08/06 06:02:22;;;;;;;0.50;0.47;;;;;;;;;;4990814;28;20544;-85
2022/08/06 06:04:52;;;;;;;0.50;0.50;;;;;;;;;;4988604;28;20042;-86
2022/08/06 06:07:41;;;;;;;0.40;0.40;;;;;;;;;;5003226;28;20542;-84
2022/08/06 06:10:30;;;;;;;0.38;0.28;;;;;;;;;;4987731;28;20538;-85
2022/08/06 06:13:02;;;;;;;0.30;0.20;;;;;;;;;;4991255;28;20054;-84
2022/08/06 06:15:54;;;;;;;1.08;0.60;;;;;;;;;;5006626;28;20064;-83
2022/08/06 06:18:36;;;;;;;0.45;0.40;;;;;;;;;;5006943;28;20049;-84
2022/08/06 06:21:09;;;;;;;0.30;0.30;;;;;;;;;;5001043;28;20077;-83
2022/08/06 06:23:56;;;;;;;0.47;0.32;;;;;;;;;;5006460;28;20054;-84
2022/08/06 06:26:30;;;;;;;0.70;0.60;;;;;;;;;;5005567;28;20042;-83
2022/08/06 06:29:07;;;;;;;1.30;0.20;;;;;;;;;;5006949;28;20050;-84
2022/08/06 06:31:42;;;;;;;0.20;0.20;;;;;;;;;;5006981;28;20053;-82
2022/08/06 06:34:35;;;;;;;0.20;0.20;;;;;;;;;;5006801;28;20050;-79
2022/08/06 06:37:07;;;;;;;0.30;0.30;;;;;;;;;;5003229;28;20054;-79
2022/08/06 06:39:39;;;;;;;0.40;0.30;;;;;;;;;;4998926;28;20121;-79
2022/08/06 06:42:17;;;;;;;0.13;0.13;;;;;;;;;;5003860;28;20187;-79
2022/08/06 06:45:06;;;;;;;0.85;0.30;;;;;;;;;;4997639;28;20061;-81
2022/08/06 06:47:57;;;;;;;0.20;0.20;;;;;;;;;;5007248;28;20054;-80
2022/08/06 06:50:29;;;;;;;0.98;0.38;;;;;;;;;;5006608;28;20056;-80
2022/08/06 06:52:57;;;;;;;0.35;0.35;;;;;;;;;;5002810;28;20127;-80
2022/08/06 06:55:33;;;;;;;0.65;0.30;;;;;;;;;;5004828;28;20093;-80
2022/08/06 06:58:25;;;;;;;0.35;0.28;;;;;;;;;;5006777;28;20053;-81
2022/08/06 07:00:56;;;;;;;0.55;0.45;;;;;;;;;;5008435;28;20054;-81
2022/08/06 07:03:46;;;;;;;1.55;0.40;;;;;;;;;;5005776;28;20111;-81
2022/08/06 07:06:16;;;;;;;0.52;0.50;;;;;;;;;;5007334;28;20061;-80
2022/08/06 07:09:05;;;;;;;0.63;0.40;;;;;;;;;;5009958;28;20160;-80
2022/08/06 07:11:44;;;;;;;0.50;0.50;;;;;;;;;;5006141;28;20339;-80
2022/08/06 07:14:31;;;;;;;1.38;1.23;;;;;;;;;;5010594;28;20061;-80
2022/08/06 07:17:03;;;;;;;0.73;0.28;;;;;;;;;;5008456;28;20497;-80
2022/08/06 07:19:53;;;;;;;1.10;0.55;;;;;;;;;;5004417;28;20157;-80
2022/08/06 07:22:23;;;;;;;0.30;0.30;;;;;;;;;;5010475;28;20050;-81
2022/08/06 07:24:53;;;;;;;1.33;0.57;;;;;;;;;;5009899;28;20092;-81
2022/08/06 07:27:25;;;;;;;3.85;0.57;;;;;;;;;;5008414;28;20049;-80
2022/08/06 07:30:10;;;;;;;;;;;;;;;;;;5005334;28;20570;-80
2022/08/06 07:32:40;;;;;;;1.48;0.77;;;;;;;;;;5010195;28;20289;-80
2022/08/06 07:35:16;;;;;;;3.92;0.55;;;;;;;;;;5007833;28;20057;-81
2022/08/06 07:37:50;;;;;;;0.52;0.47;;;;;;;;;;5009827;28;20048;-80
2022/08/06 07:40:23;;;;;;;0.25;0.25;;;;;;;;;;5011331;28;20065;-80
2022/08/06 07:42:57;;;;;;;0.98;0.68;;;;;;;;;;5008311;28;20108;-79
2022/08/06 07:45:26;;;;;;;1.63;0.73;;;;;;;;;;5006720;28;20053;-80
2022/08/06 07:48:18;;;;;;;0.60;0.40;;;;;;;;;;5003340;28;20054;-80
2022/08/06 07:50:49;;;;;;;7.78;0.63;;;;;;;;;;5003914;28;20125;-80
2022/08/06 07:53:19;;;;;;;2.65;0.68;;;;;;;;;;5005044;28;20042;-80
2022/08/06 07:56:09;;;;;;;1.15;0.70;;;;;;;;;;5006654;28;20064;-80
2022/08/06 07:58:39;;;;;;;0.30;0.28;;;;;;;;;;5007310;28;20050;-81
2022/08/06 08:01:14;;;;;;;0.45;0.25;;;;;;;;;;5007053;28;20486;-81
2022/08/06 08:06:53;;;;;;;0.73;0.60;;;;;;;;;;5008798;28;20563;-80
2022/08/06 08:09:24;;;;;;;0.65;0.52;;;;;;;;;;5008904;28;20050;-81
2022/08/06 08:12:13;;;;;;;2.08;0.60;;;;;;;;;;5007556;28;20041;-81
2022/08/06 08:15:03;;;;;;;0.35;0.35;;;;;;;;;;5003704;28;20490;-81
2022/08/06 08:17:33;;;;;;;1.90;0.90;;;;;;;;;;5009634;28;20057;-81
2022/08/06 08:20:06;;;;;;;0.70;0.57;;;;;;;;;;5006227;28;20045;-80
2022/08/06 08:22:44;;;;;;;1.23;0.93;;;;;;;;;;5009424;28;20061;-80
2022/08/06 08:25:17;;;;;;;0.93;0.55;;;;;;;;;;5008643;28;20061;-80
2022/08/06 08:28:06;;;;;;;1.10;0.75;;;;;;;;;;4998566;28;20060;-80
2022/08/06 08:30:40;;;;;;;1.27;0.63;;;;;;;;;;5009572;28;20129;-80
2022/08/06 08:33:09;;;;;;;0.57;0.57;;;;;;;;;;5009356;28;20093;-81
2022/08/06 08:35:47;;;;;;;0.40;0.40;;;;;;;;;;5008490;28;20058;-80
2022/08/06 08:38:18;;;;;;;1.15;0.80;;;;;;;;;;5002151;28;20383;-80
2022/08/06 08:40:48;;;;;;;0.60;0.55;;;;;;;;;;5009012;28;20050;-80
2022/08/06 08:43:20;;;;;;;0.47;0.47;;;;;;;;;;5008691;28;20072;-81
2022/08/06 08:46:09;;;;;;;0.95;0.70;;;;;;;;;;5008201;28;20045;-81
2022/08/06 08:48:38;;;;;;;2.60;1.48;;;;;;;;;;5008191;28;20281;-80
2022/08/06 08:51:09;;;;;;;1.17;0.60;;;;;;;;;;5007649;28;20050;-80
2022/08/06 08:53:39;;;;;;;0.85;0.50;;;;;;;;;;5005142;28;20097;-80
2022/08/06 08:56:14;;;;;;;1.00;0.90;;;;;;;;;;5006161;28;20342;-81
2022/08/06 08:59:03;;;;;;;0.70;0.70;;;;;;;;;;5006642;28;20452;-80
2022/08/06 09:01:51;;;;;;;1.20;0.70;;;;;;;;;;4997211;28;20517;-80
2022/08/06 09:04:26;;;;;;;0.98;0.68;;;;;;;;;;5008958;28;20042;-81
2022/08/06 09:06:57;;;;;;;0.95;0.60;;;;;;;;;;5007986;28;20050;-80
2022/08/06 09:09:27;;;;;;;0.90;0.60;;;;;;;;;;5005208;28;20058;-80
2022/08/06 09:11:59;;;;;;;0.93;0.80;;;;;;;;;;5003438;28;20058;-80
2022/08/06 09:14:33;;;;;;;0.60;0.53;;;;;;;;;;5008583;28;20065;-80
2022/08/06 09:17:02;;;;;;;0.82;0.70;;;;;;;;;;5007927;28;20053;-81
2022/08/06 09:19:32;;;;;;;1.38;0.93;;;;;;;;;;5008426;28;20128;-80
2022/08/06 09:22:07;;;;;;;0.45;0.40;;;;;;;;;;5005922;28;20047;-80
2022/08/06 09:24:36;;;;;;;1.10;1.00;;;;;;;;;;4998722;28;20061;-81
2022/08/06 09:27:07;;;;;;;1.38;0.90;;;;;;;;;;5007782;28;20511;-80
2022/08/06 09:29:57;;;;;;;1.25;0.80;;;;;;;;;;5002288;28;20133;-80
2022/08/06 09:32:39;;;;;;;2.58;0.82;;;;;;;;;;5008234;28;20046;-80
2022/08/06 09:35:25;;;;;;;0.68;0.68;;;;;;;;;;5008653;28;20061;-80
2022/08/06 09:38:15;;;;;;;1.17;0.60;;;;;;;;;;5012324;28;20060;-80
2022/08/06 09:41:00;;;;;;;1.35;0.90;;;;;;;;;;5011708;28;20046;-80
2022/08/06 09:43:32;;;;;;;1.17;0.68;;;;;;;;;;5011685;28;20050;-80
2022/08/06 09:46:36;;;;;;;1.48;0.75;;;;;;;;;;5005241;28;20058;-81
2022/08/06 09:49:05;;;;;;;0.98;0.70;;;;;;;;;;5007569;28;20061;-80
2022/08/06 09:52:11;;;;;;;1.45;0.65;;;;;;;;;;5022106;28;20053;-81
2022/08/06 09:54:42;;;;;;;1.02;0.47;;;;;;;;;;5011556;28;20056;-80
2022/08/06 09:57:13;;;;;;;0.98;0.85;;;;;;;;;;5008393;28;20046;-80
2022/08/06 10:00:02;;;;;;;0.60;0.38;;;;;;;;;;5011579;28;20052;-81
2022/08/06 10:02:34;;;;;;;1.90;0.77;;;;;;;;;;5009318;28;20074;-80
2022/08/06 10:05:10;;;;;;;0.70;0.65;;;;;;;;;;5011203;28;20046;-80
2022/08/06 10:07:47;;;;;;;1.15;0.40;;;;;;;;;;5011473;28;20088;-80
2022/08/06 10:10:22;;;;;;;1.10;0.65;;;;;;;;;;5007794;28;20042;-80
2022/08/06 10:13:12;;;;;;;1.50;0.50;;;;;;;;;;5002509;28;20501;-80
2022/08/06 10:15:41;;;;;;;1.20;0.63;;;;;;;;;;5011029;28;20104;-80
2022/08/06 10:18:38;;;;;;;0.47;0.30;;;;;;;;;;5008809;28;20052;-80
2022/08/06 10:21:26;;;;;;;0.65;0.45;;;;;;;;;;5007765;28;20046;-81
2022/08/06 10:24:10;;;;;;;1.45;1.17;;;;;;;;;;5011284;28;20537;-81
2022/08/06 10:26:42;;;;;;;0.28;0.28;;;;;;;;;;5010437;28;20501;-80
2022/08/06 10:29:12;;;;;;;0.85;0.70;;;;;;;;;;5012375;28;20049;-80
2022/08/06 10:31:42;;;;;;;0.45;0.45;;;;;;;;;;5010917;28;20049;-80
2022/08/06 10:34:11;;;;;;;1.58;1.05;;;;;;;;;;5006508;28;20105;-80
2022/08/06 10:36:45;;;;;;;1.83;0.85;;;;;;;;;;5009997;28;20065;-81
2022/08/06 10:39:16;;;;;;;1.20;0.93;;;;;;;;;;5000583;28;20054;-81
2022/08/06 10:42:06;;;;;;;0.95;0.88;;;;;;;;;;5011114;28;20064;-80
2022/08/06 10:44:50;;;;;;;2.38;0.50;;;;;;;;;;5008724;28;20060;-80
2022/08/06 10:47:21;;;;;;;1.65;0.82;;;;;;;;;;5008663;28;20532;-80
2022/08/06 10:50:11;;;;;;;0.40;0.40;;;;;;;;;;5010423;28;20125;-80
2022/08/06 10:52:59;;;;;;;0.88;0.63;;;;;;;;;;4997243;28;20137;-80
2022/08/06 10:55:28;;;;;;;0.85;0.43;;;;;;;;;;5010314;28;20054;-80
2022/08/06 10:58:14;;;;;;;1.17;0.85;;;;;;;;;;5008361;28;20617;-81
2022/08/06 11:00:45;;;;;;;1.00;0.80;;;;;;;;;;5010696;28;20517;-80
2022/08/06 11:03:28;;;;;;;1.98;0.60;;;;;;;;;;5010158;28;20050;-81
2022/08/06 11:06:00;;;;;;;0.77;0.68;;;;;;;;;;5000973;28;20521;-80
2022/08/06 11:08:50;;;;;;;1.38;0.63;;;;;;;;;;5007801;28;20064;-80
2022/08/06 11:11:32;;;;;;;0.30;0.22;;;;;;;;;;5008172;28;20042;-81
2022/08/06 11:14:11;;;;;;;1.13;0.50;;;;;;;;;;5008305;28;20525;-80
2022/08/06 11:16:55;;;;;;;0.80;0.43;;;;;;;;;;5006276;28;20494;-80
2022/08/06 11:19:38;;;;;;;0.73;0.65;;;;;;;;;;5009851;28;20053;-81
2022/08/06 11:22:34;;;;;;;1.10;0.70;;;;;;;;;;5010066;28;20393;-80
2022/08/06 11:25:03;;;;;;;0.57;0.50;;;;;;;;;;5009520;28;20073;-81
2022/08/06 11:27:52;;;;;;;0.47;0.47;;;;;;;;;;5002844;28;20568;-80
2022/08/06 11:30:37;;;;;;;1.13;0.73;;;;;;;;;;5010076;28;20077;-80
2022/08/06 11:33:06;;;;;;;0.70;0.70;;;;;;;;;;5010149;28;20118;-81
2022/08/06 11:35:40;;;;;;;1.25;0.68;;;;;;;;;;5007711;28;20123;-81
2022/08/06 11:38:34;;;;;;;1.75;1.05;;;;;;;;;;5009665;28;20545;-81
2022/08/06 11:41:05;;;;;;;1.70;1.05;;;;;;;;;;5009589;28;20128;-81
2022/08/06 11:43:50;;;;;;;1.25;0.77;;;;;;;;;;5008592;28;20113;-80
2022/08/06 11:46:33;;;;;;;0.98;0.65;;;;;;;;;;5008856;28;20050;-81
2022/08/06 11:49:16;;;;;;;2.03;1.17;;;;;;;;;;5009319;28;20541;-80
2022/08/06 11:51:48;;;;;;;1.77;0.75;;;;;;;;;;5011004;28;20046;-81
2022/08/06 11:54:34;;;;;;;0.68;0.55;;;;;;;;;;5009647;28;20108;-81
2022/08/06 11:57:22;;;;;;;1.52;1.42;;;;;;;;;;5007396;28;20576;-81
2022/08/06 12:00:13;;;;;;;1.33;0.80;;;;;;;;;;5009796;28;20045;-81
2022/08/06 12:02:54;;;;;;;2.85;0.90;;;;;;;;;;5001186;28;20052;-81
2022/08/06 12:05:40;;;;;;;1.35;1.17;;;;;;;;;;5005627;28;20413;-81
2022/08/06 12:08:26;;;;;;;1.05;0.75;;;;;;;;;;5004288;28;20047;-81
2022/08/06 12:11:22;;;;;;;0.80;0.50;;;;;;;;;;5006034;28;20060;-81
2022/08/06 12:13:52;;;;;;;2.40;1.05;;;;;;;;;;5007119;28;20545;-81
2022/08/06 12:16:41;;;;;;;1.40;1.23;;;;;;;;;;4997083;28;20046;-79
2022/08/06 12:19:23;;;;;;;1.10;0.88;;;;;;;;;;5007625;28;20050;-81
2022/08/06 12:21:55;;;;;;;2.33;1.23;;;;;;;;;;5009199;28;20049;-81
2022/08/06 12:24:26;;;;;;;4.25;1.85;;;;;;;;;;5008996;28;20060;-81
2022/08/06 12:27:15;;;;;;;3.28;2.08;;;;;;;;;;5008408;28;20042;-81
2022/08/06 12:29:56;;;;;;;1.30;1.10;;;;;;;;;;5006798;28;20046;-81
2022/08/06 12:32:28;;;;;;;0.43;0.43;;;;;;;;;;5008902;28;20046;-81
2022/08/06 12:34:59;;;;;;;2.78;0.80;;;;;;;;;;5002394;28;20105;-81
2022/08/06 12:37:34;;;;;;;4.03;1.75;;;;;;;;;;5008198;28;20096;-80
2022/08/06 12:40:29;;;;;;;0.93;0.70;;;;;;;;;;5007955;28;20543;-81
2022/08/06 12:43:11;;;;;;;1.77;1.48;;;;;;;;;;5008557;28;20417;-81
2022/08/06 12:45:44;;;;;;;0.57;0.45;;;;;;;;;;5001715;28;20046;-80
2022/08/06 12:48:33;;;;;;;1.67;0.90;;;;;;;;;;5008765;28;20505;-80
2022/08/06 12:51:08;;;;;;;1.80;1.10;;;;;;;;;;5006065;28;20145;-80
2022/08/06 12:53:42;;;;;;;0.80;0.75;;;;;;;;;;5008200;28;20072;-80
2022/08/06 12:56:15;;;;;;;1.98;1.13;;;;;;;;;;5006766;28;20042;-80
2022/08/06 12:59:00;;;;;;;1.75;0.93;;;;;;;;;;5003840;28;20057;-80
2022/08/06 13:01:30;;;;;;;2.28;1.35;;;;;;;;;;5005416;28;20137;-80
2022/08/06 13:04:20;;;;;;;1.08;0.88;;;;;;;;;;5008764;28;20060;-80
2022/08/06 13:06:51;;;;;;;1.75;1.25;;;;;;;;;;5007693;28;20069;-80
2022/08/06 13:09:29;;;;;;;1.10;0.77;;;;;;;;;;5003936;28;20058;-80
2022/08/06 13:12:12;;;;;;;1.65;1.10;;;;;;;;;;5011048;28;20050;-80
2022/08/06 13:14:57;;;;;;;1.10;0.60;;;;;;;;;;5009755;28;20500;-80
2022/08/06 13:18:00;;;;;;;2.40;1.20;;;;;;;;;;5023823;28;20056;-79
2022/08/06 13:20:36;;;;;;;1.45;0.90;;;;;;;;;;5012345;28;20136;-80
2022/08/06 13:23:07;;;;;;;0.88;0.80;;;;;;;;;;5011963;28;20053;-80
2022/08/06 13:25:43;;;;;;;1.70;0.93;;;;;;;;;;5007941;28;20521;-80
2022/08/06 13:28:21;;;;;;;1.38;0.70;;;;;;;;;;5012033;28;20129;-80
2022/08/06 13:30:57;;;;;;;0.90;0.75;;;;;;;;;;5012019;28;20053;-80
2022/08/06 13:33:31;;;;;;;0.73;0.70;;;;;;;;;;5011513;28;20041;-80
2022/08/06 13:36:16;;;;;;;;;;;;;;;;;;5001753;28;20109;-79
2022/08/06 13:38:45;;;;;;;1.25;0.80;;;;;;;;;;5011614;28;19983;-80
2022/08/06 13:41:25;;;;;;;1.58;1.13;;;;;;;;;;5010313;28;20050;-79
2022/08/06 13:43:56;;;;;;;0.82;0.52;;;;;;;;;;5007155;28;20049;-80
2022/08/06 13:46:27;;;;;;;0.43;0.43;;;;;;;;;;5010924;28;20611;-79
2022/08/06 13:49:00;;;;;;;1.27;1.02;;;;;;;;;;5006867;28;20123;-80
2022/08/06 13:51:42;;;;;;;2.05;0.85;;;;;;;;;;5010935;28;20050;-80
2022/08/06 13:54:24;;;;;;;1.00;0.55;;;;;;;;;;5011750;28;20058;-80
2022/08/06 13:56:53;;;;;;;1.75;0.82;;;;;;;;;;5009458;28;20104;-80
2022/08/06 13:59:27;;;;;;;2.15;0.93;;;;;;;;;;5008161;28;20056;-80
2022/08/06 14:02:10;;;;;;;1.85;0.80;;;;;;;;;;5010403;28;20068;-80
2022/08/06 14:04:39;;;;;;;0.63;0.57;;;;;;;;;;5010061;28;20052;-80
2022/08/06 14:07:17;;;;;;;2.35;1.10;;;;;;;;;;5010712;28;20129;-80
2022/08/06 14:09:46;;;;;;;0.85;0.73;;;;;;;;;;5005959;28;20379;-80
2022/08/06 14:12:35;;;;;;;1.52;0.77;;;;;;;;;;5005699;28;20050;-80
2022/08/06 14:15:06;;;;;;;0.38;0.38;;;;;;;;;;5008945;28;20132;-80
2022/08/06 14:17:41;;;;;;;1.77;1.63;;;;;;;;;;5003475;28;20545;-80
2022/08/06 14:20:13;;;;;;;1.50;1.13;;;;;;;;;;5010806;28;20478;-80
2022/08/06 14:22:52;;;;;;;0.93;0.80;;;;;;;;;;5011337;28;20046;-80
2022/08/06 14:25:22;;;;;;;1.17;0.82;;;;;;;;;;5009375;28;20132;-80
2022/08/06 14:27:55;;;;;;;1.45;0.68;;;;;;;;;;5005494;28;20050;-81
2022/08/06 14:30:24;;;;;;;2.15;1.08;;;;;;;;;;5010945;28;20056;-80
2022/08/06 14:33:01;;;;;;;1.17;0.95;;;;;;;;;;5010955;28;20064;-80
2022/08/06 14:35:39;;;;;;;2.80;1.08;;;;;;;;;;5007169;28;20128;-81
2022/08/06 14:38:19;;;;;;;1.27;0.85;;;;;;;;;;5006873;28;20100;-80
2022/08/06 14:46:30;;;;;;;1.38;0.60;;;;;;;;;;5010393;28;20136;-80
2022/08/06 14:49:00;;;;;;;2.90;0.93;;;;;;;;;;5002652;28;20049;-80
2022/08/06 14:51:40;;;;;;;1.00;0.77;;;;;;;;;;5008723;28;20077;-80
2022/08/06 14:54:29;;;;;;;0.85;0.82;;;;;;;;;;5010233;28;20508;-80
2022/08/06 14:57:02;;;;;;;2.30;0.93;;;;;;;;;;5008230;28;20398;-80
2022/08/06 14:59:44;;;;;;;2.97;0.80;;;;;;;;;;5009841;28;20541;-80
2022/08/06 15:02:20;;;;;;;0.98;0.55;;;;;;;;;;5009468;28;20054;-80
2022/08/06 15:04:52;;;;;;;7.72;1.20;;;;;;;;;;5010147;28;20613;-80
2022/08/06 15:07:20;;;;;;;1.80;1.10;;;;;;;;;;5008297;28;20049;-80
2022/08/06 15:10:09;;;;;;;0.57;0.50;;;;;;;;;;5008231;28;20056;-80
2022/08/06 15:12:58;;;;;;;1.45;1.10;;;;;;;;;;5005930;28;20050;-80
2022/08/06 15:15:30;;;;;;;2.08;1.10;;;;;;;;;;5008754;28;20600;-81
2022/08/06 15:18:14;;;;;;;1.30;1.02;;;;;;;;;;5000070;28;20133;-80
2022/08/06 15:21:05;;;;;;;1.20;0.90;;;;;;;;;;5008859;28;20060;-80
2022/08/06 15:23:41;;;;;;;1.95;1.02;;;;;;;;;;5010118;28;20042;-81
2022/08/06 15:26:20;;;;;;;0.52;0.50;;;;;;;;;;5001044;28;20469;-81
2022/08/06 15:29:10;;;;;;;1.10;1.00;;;;;;;;;;5004196;28;20049;-81
2022/08/06 15:31:43;;;;;;;1.38;0.70;;;;;;;;;;5008256;28;20049;-82
2022/08/06 15:34:12;;;;;;;1.25;0.77;;;;;;;;;;5009222;28;20081;-81
2022/08/06 15:36:47;;;;;;;0.73;0.63;;;;;;;;;;5004703;28;20054;-81
2022/08/06 15:39:28;;;;;;;1.42;0.98;;;;;;;;;;5005745;28;20057;-85
2022/08/06 15:42:17;;;;;;;1.88;1.20;;;;;;;;;;5006524;28;20052;-85
2022/08/06 15:44:47;;;;;;;0.93;0.75;;;;;;;;;;5009343;28;20493;-85
2022/08/06 15:47:16;;;;;;;0.60;0.60;;;;;;;;;;5003252;28;20536;-86
2022/08/06 15:49:58;;;;;;;5.88;0.80;;;;;;;;;;5004412;28;20069;-94
2022/08/06 15:52:32;;;;;;;0.93;0.63;;;;;;;;;;5008521;28;20420;-86
2022/08/06 15:55:01;;;;;;;1.27;1.10;;;;;;;;;;5007450;28;20057;-87
2022/08/06 15:57:44;;;;;;;1.15;0.70;;;;;;;;;;5006917;28;20069;-86
2022/08/06 16:00:34;;;;;;;2.22;1.05;;;;;;;;;;4999948;28;20050;-86